KANB/ANB METAR and TAF weather

Enter ICAO airport designator
Station Type Date Time Source
KANB METAR 2019/08/22 06:53 UTC NOAA

KANB 220653Z AUTO 25004KT 10SM CLR 23/21 A3004 RMK AO2 SLP161 T02330206


Station Type Date Time Source
KANB Decoded METAR 2019/08/22 06:53 UTC NOAA

Station name not available
Aug 22, 2019 - 02:53 AM EDT / 2019.08.22 0653 UTC
Wind: from the WSW (250 degrees) at 5 MPH (4 KT):0
Visibility: 10 mile(s):0
Sky conditions: clear
Temperature: 73.9 F (23.3 C)
Dew Point: 69.1 F (20.6 C)
Relative Humidity: 84%
Pressure (altimeter): 30.04 in. Hg (1017 hPa)
ob: KANB 220653Z AUTO 25004KT 10SM CLR 23/21 A3004 RMK AO2 SLP161 T02330206
cycle: 7

Station Type Date Time Source
KANB TAF 2019/08/22 06:22 UTC NOAA

TAF KANB 220520Z 2206/2306 23003KT P6SM SCT250
FM221000 24003KT P6SM BKN020
FM221500 24005KT P6SM SCT025
FM221800 22006KT P6SM SCT040 PROB30 2218/2224 2SM TSRA BKN035CB

Example: see airport list